Terminal Aerodrome Forecast
Issued by NWS Atlanta, GA

Home | Current Version | Previous Version | Text Only | Print | Product List | Glossary On
Versions: 1 2 3 4 5 6 7 8 9 10 11 12 13 14 15 16 17
000
FTUS42 KFFC 241325 AAB
TAFMCN
TAF AMD
KMCN 241325Z 2413/2512 09006KT P6SM SCT040
     FM241600 10008G16KT P6SM SCT050
     FM242000 11008G13KT P6SM BKN060
     FM242300 10008G13KT P6SM SCT050
     FM250700 13006KT P6SM BKN015
     FM250900 12004KT P6SM BKN009=

USA.gov is the U.S. government's official web portal to all federal, state and local government web resources and services.